Search for airport 
image banner adimage banner adimage banner ad
image banner ad

PA31 - Rover

Located in Annville, United States

ICAO - PA31, IATA -

Data provided by Airmate  

General information

Coordinates: N40°17'0" W76°32'22"
Elevation is 500 feet MSL.
Magnetic variation is -10° East
View others Airports in Pennsylvania

Operational data

Special qualification required
Current time UTC:
Current local time:
METAR: KMUI 071156Z COR 00000KT 10SM FEW080 SCT180 BKN250 12/03 A2992 RMK AO2A SLP135 T01240031 10124 20039 55002 COR 1208
TAF: TAF KMUI 071100Z 0711/0817 VRB06KT 9999 SCT055 BKN200 QNH2980INS BECMG 0719/0720 05009KT 9000 -RA BKN030 OVC050 QNH2977INS BECMG 0723/0724 24009KT 6000 -RA BR OVC012 QNH2980INS BECMG 0808/0809 VRB06KT 8000 -SHRA SCT012 BKN030 BKN150 QNH2982INS BECMG 0814/0815 29010G15KT 8000 -SHRA BKN020 QNH2983INS TX16/0717Z TN06/0809Z
View NOTAMs / SUP AIP / TFR affecting this airport [VIEW]
Communications frequencies: [VIEW]

Runways:

RWY identifierQFULength (ft)Width (ft)SurfaceLDA (ft)
102150100GRASS
282150100GRASS

Airport contact information

Address: Annville United States

Satellite view of PA31